createdAt,value
2023-05-13T00:01:30.158Z,10.70
2023-05-13T00:04:31.267Z,10.70
2023-05-13T00:07:32.772Z,10.70
2023-05-13T00:10:35.184Z,10.70
2023-05-13T00:13:36.348Z,10.70
2023-05-13T00:16:37.433Z,10.70
2023-05-13T00:19:38.725Z,10.70
2023-05-13T00:22:39.468Z,10.70
2023-05-13T00:25:41.576Z,10.80
2023-05-13T00:28:42.916Z,10.80
2023-05-13T00:31:44.429Z,10.80
2023-05-13T00:34:45.860Z,10.80
2023-05-13T00:37:47.061Z,10.80
2023-05-13T00:40:49.940Z,10.80
2023-05-13T00:43:57.070Z,10.80
2023-05-13T00:46:58.416Z,10.80
2023-05-13T00:49:59.472Z,10.90
2023-05-13T00:53:00.710Z,10.80
2023-05-13T00:56:02.178Z,10.90
2023-05-13T00:59:03.436Z,10.90
2023-05-13T01:02:43.163Z,10.90
2023-05-13T01:06:08.912Z,10.90
2023-05-13T01:09:34.008Z,10.90
2023-05-13T01:12:44.061Z,10.80
2023-05-13T01:16:14.711Z,10.90
2023-05-13T01:19:57.909Z,10.90
2023-05-13T01:22:59.427Z,10.80
2023-05-13T01:26:00.759Z,10.90
2023-05-13T01:29:02.531Z,10.90
2023-05-13T01:32:05.095Z,10.90
2023-05-13T01:35:09.314Z,10.90
2023-05-13T01:38:16.220Z,10.80
2023-05-13T01:41:22.333Z,10.80
2023-05-13T01:44:23.359Z,10.80
2023-05-13T01:47:24.565Z,10.80
2023-05-13T01:50:26.498Z,10.90
2023-05-13T01:53:28.109Z,10.90
2023-05-13T01:56:29.184Z,10.80
2023-05-13T01:59:31.447Z,10.90
2023-05-13T02:02:33.762Z,10.90
2023-05-13T02:05:34.854Z,10.90
2023-05-13T02:08:40.912Z,10.90
2023-05-13T02:11:42.388Z,10.90
2023-05-13T02:14:43.417Z,10.90
2023-05-13T02:17:44.102Z,10.90
2023-05-13T02:20:46.488Z,10.90
2023-05-13T02:23:47.901Z,10.90
2023-05-13T02:26:49.196Z,10.80
2023-05-13T02:29:50.591Z,10.90
2023-05-13T02:32:51.629Z,10.80
2023-05-13T02:35:52.468Z,10.90
2023-05-13T02:38:53.840Z,10.90
2023-05-13T02:41:55.270Z,10.90
2023-05-13T02:44:57.797Z,10.90
2023-05-13T02:48:01.024Z,10.80
2023-05-13T02:51:02.420Z,10.80
2023-05-13T02:54:03.957Z,10.70
2023-05-13T02:57:05.250Z,10.80
2023-05-13T03:00:07.630Z,10.70
2023-05-13T03:03:09.114Z,10.80
2023-05-13T03:06:10.248Z,10.80
2023-05-13T03:09:11.151Z,10.80
2023-05-13T03:12:11.968Z,10.90
2023-05-13T03:15:14.479Z,10.80
2023-05-13T03:18:17.495Z,10.70
2023-05-13T03:21:18.652Z,10.70
2023-05-13T03:24:20.172Z,10.80
2023-05-13T03:27:22.049Z,10.70
2023-05-13T03:30:22.976Z,10.70
2023-05-13T03:33:32.160Z,10.70
2023-05-13T03:36:33.283Z,10.70
2023-05-13T03:39:35.111Z,10.70
2023-05-13T03:42:36.310Z,10.70
2023-05-13T03:45:39.217Z,10.70
2023-05-13T03:48:46.002Z,10.70
2023-05-13T03:51:47.577Z,10.70
2023-05-13T03:54:49.138Z,10.60
2023-05-13T03:57:50.461Z,10.60
2023-05-13T04:00:53.698Z,10.60
2023-05-13T04:03:54.787Z,10.60
2023-05-13T04:06:55.955Z,10.60
2023-05-13T04:09:58.363Z,10.60
2023-05-13T04:13:00.064Z,10.50
2023-05-13T04:16:03.212Z,10.50
2023-05-13T04:19:04.416Z,10.50
2023-05-13T04:22:05.658Z,10.60
2023-05-13T04:25:07.138Z,10.50
2023-05-13T04:28:08.793Z,10.50
2023-05-13T04:31:14.283Z,10.60
2023-05-13T04:34:15.787Z,10.60
2023-05-13T04:37:18.296Z,10.60
2023-05-13T04:40:19.496Z,10.60
2023-05-13T04:43:22.513Z,10.60
2023-05-13T04:46:28.018Z,10.60
2023-05-13T04:49:29.378Z,10.60
2023-05-13T04:52:30.916Z,10.60
2023-05-13T04:55:32.032Z,10.70
2023-05-13T04:58:33.217Z,10.60
2023-05-13T05:01:34.707Z,10.70
2023-05-13T05:04:36.058Z,10.60
2023-05-13T05:07:42.492Z,10.60
2023-05-13T05:10:43.982Z,10.60
2023-05-13T05:13:46.265Z,10.60
2023-05-13T05:16:49.230Z,10.60
2023-05-13T05:19:50.512Z,10.60
2023-05-13T05:22:52.066Z,10.60
2023-05-13T05:26:03.978Z,10.60
2023-05-13T05:29:10.150Z,10.60
2023-05-13T05:32:11.243Z,10.60
2023-05-13T05:35:13.622Z,10.60
2023-05-13T05:38:15.271Z,10.60
2023-05-13T05:41:16.921Z,10.60
2023-05-13T05:44:20.516Z,10.60
2023-05-13T05:47:21.990Z,10.70
2023-05-13T05:50:23.955Z,10.70
2023-05-13T05:53:26.407Z,10.70
2023-05-13T05:56:28.539Z,10.70
2023-05-13T05:59:29.419Z,10.70
2023-05-13T06:02:30.465Z,10.80
2023-05-13T06:05:31.815Z,10.70
2023-05-13T06:08:32.875Z,10.70
2023-05-13T06:11:34.240Z,10.80
2023-05-13T06:14:35.568Z,10.70
2023-05-13T06:17:37.314Z,10.80
2023-05-13T06:20:39.806Z,10.80
2023-05-13T06:23:41.118Z,10.80
2023-05-13T06:26:42.244Z,10.90
2023-05-13T06:29:43.592Z,10.90
2023-05-13T06:32:53.479Z,10.90
2023-05-13T06:35:58.778Z,10.90
2023-05-13T06:39:01.187Z,10.90
2023-05-13T06:42:03.007Z,10.90
2023-05-13T06:45:09.390Z,10.90
2023-05-13T06:48:10.827Z,10.90
2023-05-13T06:51:11.957Z,10.90
2023-05-13T06:54:12.932Z,11.00
2023-05-13T06:57:14.383Z,10.90
2023-05-13T07:00:16.653Z,10.90
2023-05-13T07:03:20.701Z,10.90
2023-05-13T07:06:21.696Z,10.90
2023-05-13T07:09:22.445Z,11.00
2023-05-13T07:12:24.040Z,11.00
2023-05-13T07:15:25.218Z,11.10
2023-05-13T07:18:26.386Z,11.10
2023-05-13T07:21:27.971Z,11.10
2023-05-13T07:24:28.902Z,11.10
2023-05-13T07:27:30.164Z,11.20
2023-05-13T07:30:31.370Z,11.30
2023-05-13T07:33:32.663Z,11.40
2023-05-13T07:36:33.560Z,11.50
2023-05-13T07:39:34.760Z,11.60
2023-05-13T07:42:37.108Z,11.70
2023-05-13T07:45:39.446Z,11.90
2023-05-13T07:48:40.604Z,12.10
2023-05-13T07:51:42.223Z,12.20
2023-05-13T07:54:42.987Z,12.20
2023-05-13T07:57:44.083Z,12.40
2023-05-13T08:00:45.129Z,12.40
2023-05-13T08:03:46.389Z,12.50
2023-05-13T08:06:47.831Z,12.40
2023-05-13T08:09:48.670Z,12.70
2023-05-13T08:12:53.812Z,12.80
2023-05-13T08:15:55.235Z,12.80
2023-05-13T08:18:56.362Z,12.80
2023-05-13T08:21:57.659Z,12.90
2023-05-13T08:25:01.204Z,13.00
2023-05-13T08:28:03.690Z,13.00
2023-05-13T08:31:05.248Z,13.10
2023-05-13T08:34:06.278Z,12.80
2023-05-13T08:37:07.139Z,12.90
2023-05-13T08:40:11.099Z,12.90
2023-05-13T08:43:17.196Z,13.00
2023-05-13T08:46:19.626Z,13.00
2023-05-13T08:49:21.321Z,13.00
2023-05-13T08:52:23.242Z,12.90
2023-05-13T08:55:24.654Z,12.60
2023-05-13T08:58:26.036Z,12.60
2023-05-13T09:01:27.600Z,12.60
2023-05-13T09:04:28.762Z,12.60
2023-05-13T09:07:34.169Z,12.60
2023-05-13T09:10:35.247Z,12.60
2023-05-13T09:13:36.520Z,12.60
2023-05-13T09:16:37.783Z,12.50
2023-05-13T09:19:38.727Z,12.60
2023-05-13T09:23:06.417Z,12.50
2023-05-13T09:26:28.572Z,12.70
2023-05-13T09:29:29.959Z,12.70
2023-05-13T09:32:32.251Z,12.80
2023-05-13T09:35:34.533Z,13.00
2023-05-13T09:38:39.342Z,13.00
2023-05-13T09:41:40.537Z,13.20
2023-05-13T09:44:43.252Z,13.30
2023-05-13T09:47:44.799Z,13.30
2023-05-13T09:50:50.151Z,13.20
2023-05-13T09:53:51.455Z,13.20
2023-05-13T09:57:00.380Z,13.00
2023-05-13T10:00:11.018Z,13.20
2023-05-13T10:03:17.076Z,13.20
2023-05-13T10:06:22.727Z,13.30
2023-05-13T10:09:26.787Z,13.30
2023-05-13T10:12:28.860Z,13.20
2023-05-13T10:15:31.274Z,13.20
2023-05-13T10:18:32.695Z,13.20
2023-05-13T10:21:37.131Z,13.20
2023-05-13T10:24:40.225Z,12.90
2023-05-13T10:27:43.637Z,12.90
2023-05-13T10:30:45.475Z,12.90
2023-05-13T10:33:46.992Z,13.10
2023-05-13T10:37:38.062Z,13.30
2023-05-13T10:41:22.099Z,13.60
2023-05-13T10:44:24.701Z,13.90
2023-05-13T10:47:27.404Z,14.30
2023-05-13T10:50:29.079Z,14.30
2023-05-13T10:53:32.376Z,14.30
2023-05-13T10:56:33.614Z,14.20
2023-05-13T10:59:37.365Z,14.50
2023-05-13T11:02:38.486Z,14.30
2023-05-13T11:05:44.935Z,14.60
2023-05-13T11:08:49.623Z,14.70
2023-05-13T11:11:56.045Z,14.70
2023-05-13T11:14:57.234Z,15.00
2023-05-13T11:17:59.114Z,14.90
2023-05-13T11:21:05.777Z,14.40
2023-05-13T11:24:08.312Z,14.90
2023-05-13T11:27:19.678Z,15.00
2023-05-13T11:30:28.223Z,15.50
2023-05-13T11:34:18.761Z,16.10
2023-05-13T11:37:20.611Z,16.90
2023-05-13T11:40:36.629Z,17.00
2023-05-13T11:43:40.932Z,17.90
2023-05-13T11:47:06.245Z,17.80
2023-05-13T11:50:35.545Z,17.80
2023-05-13T11:53:36.648Z,17.70
2023-05-13T11:56:37.318Z,18.00
2023-05-13T11:59:47.668Z,18.10
2023-05-13T12:02:50.597Z,18.10
2023-05-13T12:05:51.952Z,17.70
2023-05-13T12:08:52.971Z,17.10
2023-05-13T12:11:54.849Z,16.70
2023-05-13T12:15:08.730Z,16.90
2023-05-13T12:18:10.234Z,16.60
2023-05-13T12:21:17.548Z,16.50
2023-05-13T12:24:22.806Z,15.70
2023-05-13T12:27:23.692Z,15.40
2023-05-13T12:30:25.096Z,15.20
2023-05-13T12:33:42.834Z,14.80
2023-05-13T12:36:43.595Z,15.30
2023-05-13T12:39:45.002Z,15.40
2023-05-13T12:42:46.165Z,15.10
2023-05-13T12:45:52.108Z,14.20
2023-05-13T12:49:01.389Z,14.00
2023-05-13T12:52:05.128Z,13.60
2023-05-13T12:55:07.263Z,13.60
2023-05-13T12:58:11.483Z,13.90
2023-05-13T13:01:12.592Z,13.80
2023-05-13T13:04:16.971Z,13.80
2023-05-13T13:07:18.643Z,14.30
2023-05-13T13:10:19.944Z,14.50
2023-05-13T13:13:20.994Z,14.50
2023-05-13T13:16:22.234Z,14.70
2023-05-13T13:19:23.138Z,15.10
2023-05-13T13:22:23.935Z,15.30
2023-05-13T13:25:25.042Z,15.10
2023-05-13T13:28:27.120Z,15.20
2023-05-13T13:31:28.046Z,14.80
2023-05-13T13:34:28.832Z,14.60
2023-05-13T13:37:31.106Z,14.70
2023-05-13T13:40:32.187Z,14.90
2023-05-13T13:43:33.153Z,14.80
2023-05-13T13:46:34.279Z,14.40
2023-05-13T13:49:35.291Z,14.50
2023-05-13T13:52:36.221Z,14.20
2023-05-13T13:55:37.095Z,14.50
2023-05-13T13:58:38.115Z,14.70
2023-05-13T14:01:40.501Z,15.00
2023-05-13T14:04:41.409Z,14.80
2023-05-13T14:07:42.564Z,14.40
2023-05-13T14:10:43.246Z,14.20
2023-05-13T14:13:44.020Z,14.30
2023-05-13T14:16:45.049Z,14.30
2023-05-13T14:19:45.874Z,14.30
2023-05-13T14:22:46.930Z,14.30
2023-05-13T14:25:47.930Z,14.50
2023-05-13T14:28:48.910Z,14.50
2023-05-13T14:31:49.949Z,14.80
2023-05-13T14:34:51.048Z,15.00
2023-05-13T14:37:52.246Z,15.20
2023-05-13T14:40:55.947Z,15.10
2023-05-13T14:43:56.745Z,15.50
2023-05-13T14:46:57.715Z,16.30
2023-05-13T14:49:59.169Z,17.00
2023-05-13T14:53:00.202Z,17.20
2023-05-13T14:56:01.131Z,16.30
2023-05-13T14:59:02.776Z,16.20
2023-05-13T15:02:04.454Z,15.70
2023-05-13T15:05:06.210Z,16.30
2023-05-13T15:08:09.066Z,16.60
2023-05-13T15:11:10.045Z,15.80
2023-05-13T15:14:11.058Z,14.90
2023-05-13T15:17:12.341Z,14.30
2023-05-13T15:20:13.843Z,14.10
2023-05-13T15:23:15.210Z,13.90
2023-05-13T15:26:16.087Z,13.60
2023-05-13T15:29:16.913Z,13.50
2023-05-13T15:32:17.880Z,13.30
2023-05-13T15:35:18.549Z,13.10
2023-05-13T15:38:19.549Z,13.20
2023-05-13T15:41:20.353Z,13.30
2023-05-13T15:44:22.539Z,13.70
2023-05-13T15:47:23.679Z,14.10
2023-05-13T15:50:26.229Z,14.40
2023-05-13T15:53:27.250Z,14.50
2023-05-13T15:56:28.220Z,14.50
2023-05-13T15:59:29.142Z,14.20
2023-05-13T16:02:37.291Z,14.40
2023-05-13T16:05:39.471Z,14.60
2023-05-13T16:08:40.559Z,14.70
2023-05-13T16:11:43.717Z,14.60
2023-05-13T16:14:44.985Z,14.30
2023-05-13T16:17:45.770Z,14.40
2023-05-13T16:20:47.256Z,14.30
2023-05-13T16:23:47.877Z,14.00
2023-05-13T16:26:48.686Z,14.00
2023-05-13T16:29:49.485Z,13.90
2023-05-13T16:32:55.831Z,14.00
2023-05-13T16:35:56.860Z,14.20
2023-05-13T16:38:57.658Z,14.40
2023-05-13T16:41:58.382Z,14.60
2023-05-13T16:44:59.312Z,14.70
2023-05-13T16:48:00.791Z,15.30
2023-05-13T16:51:01.987Z,15.50
2023-05-13T16:54:02.936Z,15.80
2023-05-13T16:57:04.240Z,16.50
2023-05-13T17:00:06.441Z,16.20
2023-05-13T17:03:08.023Z,15.90
2023-05-13T17:06:09.712Z,15.90
2023-05-13T17:09:12.001Z,15.80
2023-05-13T17:12:12.993Z,15.60
2023-05-13T17:15:13.992Z,15.40
2023-05-13T17:18:15.166Z,15.30
2023-05-13T17:21:15.970Z,15.20
2023-05-13T17:24:16.825Z,15.20
2023-05-13T17:27:17.754Z,15.20
2023-05-13T17:30:19.229Z,15.10
2023-05-13T17:33:19.974Z,15.10
2023-05-13T17:36:21.293Z,15.00
2023-05-13T17:39:22.168Z,14.70
2023-05-13T17:42:23.391Z,14.60
2023-05-13T17:45:24.417Z,14.70
2023-05-13T17:48:27.100Z,14.60
2023-05-13T17:51:28.147Z,14.50
2023-05-13T17:54:29.382Z,14.30
2023-05-13T17:57:32.137Z,14.20
2023-05-13T18:00:33.085Z,13.80
2023-05-13T18:03:34.962Z,13.70
2023-05-13T18:06:35.964Z,13.50
2023-05-13T18:09:36.845Z,13.40
2023-05-13T18:12:37.694Z,13.30
2023-05-13T18:15:38.752Z,13.20
2023-05-13T18:18:39.574Z,13.00
2023-05-13T18:21:40.512Z,12.80
2023-05-13T18:24:41.608Z,12.70
2023-05-13T18:27:42.311Z,12.60
2023-05-13T18:30:43.482Z,12.60
2023-05-13T18:33:44.812Z,12.50
2023-05-13T18:36:46.234Z,12.40
2023-05-13T18:39:47.312Z,12.40
2023-05-13T18:42:48.258Z,12.20
2023-05-13T18:45:49.417Z,12.20
2023-05-13T18:48:51.271Z,12.00
2023-05-13T18:51:52.497Z,11.90
2023-05-13T18:54:53.857Z,11.80
2023-05-13T18:57:54.706Z,11.70
2023-05-13T19:00:55.824Z,11.70
2023-05-13T19:03:57.081Z,11.70
2023-05-13T19:06:58.346Z,11.70
2023-05-13T19:09:59.674Z,11.60
2023-05-13T19:13:00.468Z,11.60
2023-05-13T19:16:01.560Z,11.60
2023-05-13T19:19:03.002Z,11.60
2023-05-13T19:22:04.513Z,11.50
2023-05-13T19:25:06.205Z,11.50
2023-05-13T19:28:09.031Z,11.50
2023-05-13T19:31:10.567Z,11.40
2023-05-13T19:34:12.155Z,11.40
2023-05-13T19:37:13.284Z,11.40
2023-05-13T19:40:14.377Z,11.30
2023-05-13T19:43:15.283Z,11.30
2023-05-13T19:46:16.253Z,11.30
2023-05-13T19:49:17.177Z,11.20
2023-05-13T19:52:18.471Z,11.20
2023-05-13T19:55:20.496Z,11.20
2023-05-13T19:58:21.832Z,11.20
2023-05-13T20:01:25.088Z,11.20
2023-05-13T20:04:26.160Z,11.30
2023-05-13T20:07:27.453Z,11.20
2023-05-13T20:10:28.993Z,11.20
2023-05-13T20:13:29.836Z,11.20
2023-05-13T20:16:31.242Z,11.20
2023-05-13T20:19:32.792Z,11.30
2023-05-13T20:22:33.560Z,11.30
2023-05-13T20:25:34.472Z,11.30
2023-05-13T20:28:36.889Z,11.20
2023-05-13T20:31:42.587Z,11.30
2023-05-13T20:34:49.338Z,11.20
2023-05-13T20:37:50.508Z,11.20
2023-05-13T20:40:51.346Z,11.20
2023-05-13T20:43:52.569Z,11.20
2023-05-13T20:46:53.806Z,11.10
2023-05-13T20:49:54.500Z,11.00
2023-05-13T20:52:55.708Z,11.00
2023-05-13T20:55:56.747Z,11.00
2023-05-13T20:58:57.631Z,10.90
2023-05-13T21:01:58.905Z,10.90
2023-05-13T21:05:00.093Z,10.90
2023-05-13T21:08:01.389Z,10.90
2023-05-13T21:11:02.823Z,10.90
2023-05-13T21:14:03.905Z,10.90
2023-05-13T21:17:04.853Z,10.90
2023-05-13T21:20:06.791Z,10.80
2023-05-13T21:23:08.048Z,10.80
2023-05-13T21:26:12.916Z,10.80
2023-05-13T21:29:13.903Z,10.80
2023-05-13T21:32:15.357Z,10.80
2023-05-13T21:35:16.818Z,10.90
2023-05-13T21:38:18.216Z,10.80
2023-05-13T21:41:20.272Z,10.80
2023-05-13T21:44:21.832Z,10.80
2023-05-13T21:47:22.932Z,10.80
2023-05-13T21:50:24.369Z,10.70
2023-05-13T21:53:25.445Z,10.70
2023-05-13T21:56:26.766Z,10.70
2023-05-13T21:59:27.564Z,10.60
2023-05-13T22:02:28.531Z,10.60
2023-05-13T22:05:29.932Z,10.50
2023-05-13T22:08:31.189Z,10.50
2023-05-13T22:11:32.659Z,10.50
2023-05-13T22:14:33.755Z,10.50
2023-05-13T22:17:35.162Z,10.50
2023-05-13T22:20:36.583Z,10.50
2023-05-13T22:23:37.871Z,10.50
2023-05-13T22:26:39.630Z,10.50
2023-05-13T22:29:40.722Z,10.50
2023-05-13T22:32:41.686Z,10.50
2023-05-13T22:35:42.461Z,10.50
2023-05-13T22:38:44.353Z,10.50
2023-05-13T22:41:45.723Z,10.40
2023-05-13T22:44:46.692Z,10.40
2023-05-13T22:47:49.460Z,10.30
2023-05-13T22:50:50.879Z,10.20
2023-05-13T22:53:51.901Z,10.10
2023-05-13T22:56:53.212Z,10.20
2023-05-13T22:59:54.491Z,10.20
2023-05-13T23:02:56.091Z,10.20
2023-05-13T23:05:57.522Z,10.20
2023-05-13T23:08:58.434Z,10.20
2023-05-13T23:11:59.461Z,10.10
2023-05-13T23:15:00.274Z,10.00
2023-05-13T23:18:01.266Z,9.90
2023-05-13T23:21:02.918Z,9.80
2023-05-13T23:24:04.330Z,9.70
2023-05-13T23:27:05.884Z,9.70
2023-05-13T23:30:07.836Z,9.60
2023-05-13T23:33:09.464Z,9.50
2023-05-13T23:36:10.504Z,9.40
2023-05-13T23:39:11.498Z,9.40
2023-05-13T23:42:12.877Z,9.40
2023-05-13T23:45:14.366Z,9.30
2023-05-13T23:48:15.481Z,9.30
2023-05-13T23:51:16.210Z,9.30
2023-05-13T23:54:17.108Z,9.30
2023-05-13T23:57:18.464Z,9.30
